createdAt,value
2023-03-11T00:00:28.713Z,96707.84
2023-03-11T00:01:32.571Z,96704.56
2023-03-11T00:02:37.094Z,96708.84
2023-03-11T00:03:42.386Z,96706.19
2023-03-11T00:04:46.125Z,96714.16
2023-03-11T00:05:56.092Z,96711.34
2023-03-11T00:07:02.199Z,96712.19
2023-03-11T00:08:17.239Z,96713.16
2023-03-11T00:09:25.981Z,96702.53
2023-03-11T00:10:40.364Z,96705.19
2023-03-11T00:11:44.540Z,96708.84
2023-03-11T00:12:52.179Z,96706.88
2023-03-11T00:13:56.715Z,96705.19
2023-03-11T00:15:00.509Z,96706.19
2023-03-11T00:16:10.077Z,96721.31
2023-03-11T00:17:13.878Z,96717.00
2023-03-11T00:18:27.062Z,96713.72
2023-03-11T00:19:30.886Z,96714.53
2023-03-11T00:20:58.081Z,96712.88
2023-03-11T00:22:09.014Z,96713.22
2023-03-11T00:23:17.007Z,96713.41
2023-03-11T00:24:21.097Z,96702.94
2023-03-11T00:25:27.986Z,96707.44
2023-03-11T00:26:31.829Z,96697.00
2023-03-11T00:27:37.314Z,96707.75
2023-03-11T00:28:41.148Z,96698.31
2023-03-11T00:29:44.963Z,96701.81
2023-03-11T00:30:53.132Z,96699.31
2023-03-11T00:31:57.367Z,96698.50
2023-03-11T00:33:01.552Z,96695.84
2023-03-11T00:34:06.240Z,96696.03
2023-03-11T00:35:24.704Z,96687.38
2023-03-11T00:36:32.553Z,96688.22
2023-03-11T00:37:39.726Z,96690.03
2023-03-11T00:38:45.343Z,96680.41
2023-03-11T00:39:50.037Z,96681.59
2023-03-11T00:40:56.593Z,96678.78
2023-03-11T00:42:07.447Z,96681.59
2023-03-11T00:43:11.709Z,96681.78
2023-03-11T00:44:15.821Z,96684.25
2023-03-11T00:45:20.217Z,96673.81
2023-03-11T00:46:24.393Z,96686.25
2023-03-11T00:47:29.503Z,96687.09
2023-03-11T00:48:34.330Z,96688.91
2023-03-11T00:49:38.492Z,96688.25
2023-03-11T00:50:42.864Z,96686.59
2023-03-11T00:51:50.435Z,96688.44
2023-03-11T00:53:02.086Z,96687.78
2023-03-11T00:54:13.400Z,96682.63
2023-03-11T00:55:25.975Z,96686.13
2023-03-11T00:56:34.658Z,96690.44
2023-03-11T00:57:41.004Z,96687.09
2023-03-11T00:58:48.980Z,96688.13
2023-03-11T00:59:53.574Z,96686.47
2023-03-11T01:00:57.609Z,96688.28
2023-03-11T01:02:01.887Z,96690.13
2023-03-11T01:03:06.539Z,96688.66
2023-03-11T01:04:15.341Z,96691.13
2023-03-11T01:05:25.256Z,96689.47
2023-03-11T01:06:39.246Z,96688.78
2023-03-11T01:07:49.467Z,96680.00
2023-03-11T01:08:55.682Z,96677.34
2023-03-11T01:10:05.263Z,96680.84
2023-03-11T01:11:09.826Z,96678.19
2023-03-11T01:12:15.835Z,96679.84
2023-03-11T01:13:20.046Z,96686.13
2023-03-11T01:14:24.155Z,96680.69
2023-03-11T01:15:35.718Z,96686.81
2023-03-11T01:16:39.524Z,96686.00
2023-03-11T01:17:43.184Z,96686.63
2023-03-11T01:18:47.288Z,96675.00
2023-03-11T01:19:51.271Z,96675.84
2023-03-11T01:20:55.836Z,96673.00
2023-03-11T01:21:59.549Z,96675.84
2023-03-11T01:23:08.346Z,96669.53
2023-03-11T01:24:12.421Z,96664.88
2023-03-11T01:25:27.570Z,96664.88
2023-03-11T01:26:33.014Z,96664.03
2023-03-11T01:27:36.848Z,96659.72
2023-03-11T01:28:41.075Z,96665.72
2023-03-11T01:29:45.119Z,96658.72
2023-03-11T01:30:48.963Z,96665.72
2023-03-11T01:31:53.050Z,96658.72
2023-03-11T01:32:58.591Z,96665.72
2023-03-11T01:34:02.515Z,96661.38
2023-03-11T01:35:07.050Z,96672.69
2023-03-11T01:36:10.899Z,96672.84
2023-03-11T01:37:14.921Z,96674.84
2023-03-11T01:38:18.726Z,96671.53
2023-03-11T01:39:22.492Z,96668.06
2023-03-11T01:40:37.574Z,96668.22
2023-03-11T01:41:41.917Z,96669.06
2023-03-11T01:42:46.621Z,96670.25
2023-03-11T01:43:57.792Z,96671.94
2023-03-11T01:45:41.052Z,96666.38
2023-03-11T01:46:53.710Z,96674.19
2023-03-11T01:47:57.776Z,96675.34
2023-03-11T01:49:13.019Z,96669.88
2023-03-11T01:50:20.069Z,96675.03
2023-03-11T01:51:42.008Z,96672.88
2023-03-11T01:52:47.248Z,96680.66
2023-03-11T01:53:52.774Z,96671.69
2023-03-11T01:54:56.817Z,96679.50
2023-03-11T01:56:05.004Z,96670.06
2023-03-11T01:57:13.711Z,96677.00
2023-03-11T01:58:28.803Z,96669.22
2023-03-11T01:59:40.133Z,96664.78
2023-03-11T02:00:45.237Z,96665.13
2023-03-11T02:02:12.517Z,96666.94
2023-03-11T02:03:29.818Z,96661.13
2023-03-11T02:04:37.413Z,96663.78
2023-03-11T02:05:46.679Z,96664.94
2023-03-11T02:06:53.715Z,96669.44
2023-03-11T02:08:00.294Z,96666.28
2023-03-11T02:09:04.249Z,96667.28
2023-03-11T02:10:11.366Z,96663.44
2023-03-11T02:11:25.178Z,96674.59
2023-03-11T02:12:36.380Z,96661.97
2023-03-11T02:13:47.047Z,96674.22
2023-03-11T02:14:55.015Z,96671.56
2023-03-11T02:16:01.169Z,96671.72
2023-03-11T02:17:17.403Z,96675.84
2023-03-11T02:18:22.735Z,96680.69
2023-03-11T02:20:15.751Z,96672.72
2023-03-11T02:21:39.502Z,96687.47
2023-03-11T02:22:44.597Z,96677.22
2023-03-11T02:24:25.124Z,96677.88
2023-03-11T02:26:09.620Z,96677.88
2023-03-11T02:27:20.482Z,96676.72
2023-03-11T02:28:27.675Z,96669.56
2023-03-11T02:29:40.574Z,96673.75
2023-03-11T02:30:50.941Z,96680.34
2023-03-11T02:32:01.128Z,96677.06
2023-03-11T02:33:10.213Z,96679.34
2023-03-11T02:34:31.385Z,96678.38
2023-03-11T02:35:37.834Z,96680.88
2023-03-11T02:36:44.818Z,96689.34
2023-03-11T02:37:57.552Z,96692.66
2023-03-11T02:39:15.158Z,96686.69
2023-03-11T02:40:35.428Z,96679.59
2023-03-11T02:41:47.117Z,96698.00
2023-03-11T02:42:56.225Z,96689.38
2023-03-11T02:44:03.848Z,96690.22
2023-03-11T02:45:16.782Z,96689.69
2023-03-11T02:46:21.272Z,96687.88
2023-03-11T02:47:27.790Z,96693.69
2023-03-11T02:48:31.869Z,96690.69
2023-03-11T02:49:39.298Z,96699.63
2023-03-11T02:50:50.062Z,96712.06
2023-03-11T02:51:54.059Z,96691.69
2023-03-11T02:53:00.862Z,96701.78
2023-03-11T02:54:09.101Z,96703.94
2023-03-11T02:55:16.550Z,96705.94
2023-03-11T02:56:23.294Z,96697.66
2023-03-11T02:57:32.284Z,96698.66
2023-03-11T02:58:49.903Z,96700.97
2023-03-11T02:59:56.121Z,96706.75
2023-03-11T03:01:02.643Z,96707.44
2023-03-11T03:02:29.167Z,96701.28
2023-03-11T03:03:51.184Z,96704.28
2023-03-11T03:04:59.155Z,96701.97
2023-03-11T03:06:03.164Z,96709.25
2023-03-11T03:07:15.685Z,96700.78
2023-03-11T03:08:19.644Z,96711.09
2023-03-11T03:09:27.650Z,96702.78
2023-03-11T03:10:48.810Z,96702.47
2023-03-11T03:11:55.120Z,96698.00
2023-03-11T03:13:04.737Z,96694.34
2023-03-11T03:14:26.809Z,96699.94
2023-03-11T03:15:31.635Z,96691.31
2023-03-11T03:16:36.170Z,96690.81
2023-03-11T03:17:51.714Z,96694.97
2023-03-11T03:18:56.804Z,96694.63
2023-03-11T03:20:01.763Z,96704.56
2023-03-11T03:21:06.521Z,96696.13
2023-03-11T03:22:10.799Z,96697.78
2023-03-11T03:23:14.478Z,96704.41
2023-03-11T03:24:18.291Z,96695.63
2023-03-11T03:25:22.786Z,96704.56
2023-03-11T03:26:26.772Z,96703.56
2023-03-11T03:27:35.134Z,96712.81
2023-03-11T03:28:44.159Z,96710.50
2023-03-11T03:29:50.477Z,96722.09
2023-03-11T03:31:08.453Z,96708.19
2023-03-11T03:32:23.424Z,96712.31
2023-03-11T03:33:45.339Z,96715.13
2023-03-11T03:34:49.094Z,96703.03
2023-03-11T03:35:53.542Z,96699.56
2023-03-11T03:37:04.298Z,96704.84
2023-03-11T03:38:17.373Z,96704.50
2023-03-11T03:39:32.173Z,96698.88
2023-03-11T03:40:49.019Z,96705.34
2023-03-11T03:42:03.103Z,96692.75
2023-03-11T03:43:22.371Z,96705.50
2023-03-11T03:44:33.551Z,96689.78
2023-03-11T03:45:49.827Z,96703.84
2023-03-11T03:46:54.784Z,96696.25
2023-03-11T03:48:06.508Z,96694.22
2023-03-11T03:49:18.358Z,96700.53
2023-03-11T03:50:31.113Z,96692.22
2023-03-11T03:51:52.264Z,96692.41
2023-03-11T03:53:16.375Z,96699.50
2023-03-11T03:54:22.802Z,96703.16
2023-03-11T03:55:45.658Z,96698.81
2023-03-11T03:56:58.270Z,96697.16
2023-03-11T03:58:09.167Z,96701.16
2023-03-11T03:59:18.084Z,96687.25
2023-03-11T04:00:22.679Z,96697.50
2023-03-11T04:01:27.135Z,96703.25
2023-03-11T04:02:34.483Z,96706.75
2023-03-11T04:03:53.775Z,96697.16
2023-03-11T04:05:02.270Z,96690.19
2023-03-11T04:06:30.157Z,96699.16
2023-03-11T04:07:38.174Z,96690.75
2023-03-11T04:08:45.396Z,96694.03
2023-03-11T04:09:50.697Z,96691.88
2023-03-11T04:11:05.431Z,96696.03
2023-03-11T04:12:18.688Z,96686.91
2023-03-11T04:13:35.803Z,96690.56
2023-03-11T04:14:40.309Z,96696.50
2023-03-11T04:15:54.636Z,96693.53
2023-03-11T04:17:10.893Z,96696.03
2023-03-11T04:18:17.557Z,96691.69
2023-03-11T04:19:26.145Z,96671.66
2023-03-11T04:20:33.425Z,96676.31
2023-03-11T04:21:39.008Z,96685.38
2023-03-11T04:22:45.504Z,96683.72
2023-03-11T04:23:58.971Z,96692.28
2023-03-11T04:25:04.292Z,96686.16
2023-03-11T04:26:11.834Z,96675.91
2023-03-11T04:27:17.190Z,96663.69
2023-03-11T04:28:21.816Z,96669.97
2023-03-11T04:29:29.554Z,96663.50
2023-03-11T04:30:47.479Z,96676.09
2023-03-11T04:32:23.114Z,96665.34
2023-03-11T04:33:34.501Z,96668.97
2023-03-11T04:34:49.700Z,96659.03
2023-03-11T04:35:53.946Z,96654.88
2023-03-11T04:36:59.455Z,96653.72
2023-03-11T04:38:17.874Z,96658.34
2023-03-11T04:39:23.036Z,96666.97
2023-03-11T04:40:27.728Z,96666.44
2023-03-11T04:41:34.291Z,96667.25
2023-03-11T04:42:52.053Z,96657.53
2023-03-11T04:45:20.104Z,96664.59
2023-03-11T04:46:28.257Z,96646.06
2023-03-11T04:47:34.724Z,96668.22
2023-03-11T04:48:43.704Z,96662.63
2023-03-11T04:50:06.275Z,96665.09
2023-03-11T04:51:15.581Z,96663.91
2023-03-11T04:52:19.601Z,96662.47
2023-03-11T04:53:26.574Z,96662.97
2023-03-11T04:54:44.602Z,96665.94
2023-03-11T04:55:51.031Z,96666.75
2023-03-11T04:57:06.703Z,96668.91
2023-03-11T04:58:12.891Z,96680.13
2023-03-11T04:59:16.510Z,96682.91
2023-03-11T05:00:24.811Z,96679.94
2023-03-11T05:01:28.952Z,96680.09
2023-03-11T05:02:34.622Z,96690.31
2023-03-11T05:03:48.570Z,96703.69
2023-03-11T05:04:52.704Z,96697.06
2023-03-11T05:06:00.411Z,96684.28
2023-03-11T05:07:07.214Z,96707.41
2023-03-11T05:08:11.228Z,96688.88
2023-03-11T05:09:18.880Z,96685.84
2023-03-11T05:10:22.746Z,96693.78
2023-03-11T05:11:26.580Z,96691.91
2023-03-11T05:12:30.249Z,96691.25
2023-03-11T05:13:33.873Z,96691.56
2023-03-11T05:14:38.178Z,96683.94
2023-03-11T05:15:42.710Z,96688.78
2023-03-11T05:16:47.238Z,96696.38
2023-03-11T05:17:51.036Z,96694.22
2023-03-11T05:18:54.689Z,96687.88
2023-03-11T05:19:58.916Z,96701.41
2023-03-11T05:21:02.735Z,96696.44
2023-03-11T05:22:07.915Z,96698.25
2023-03-11T05:23:12.477Z,96687.28
2023-03-11T05:24:18.967Z,96702.84
2023-03-11T05:25:22.834Z,96699.09
2023-03-11T05:26:26.615Z,96700.94
2023-03-11T05:27:30.721Z,96705.38
2023-03-11T05:28:34.848Z,96712.25
2023-03-11T05:29:40.989Z,96703.34
2023-03-11T05:30:51.172Z,96699.59
2023-03-11T05:31:55.149Z,96702.00
2023-03-11T05:32:59.089Z,96691.38
2023-03-11T05:34:02.876Z,96695.00
2023-03-11T05:35:07.592Z,96708.66
2023-03-11T05:36:22.164Z,96692.44
2023-03-11T05:37:26.294Z,96705.13
2023-03-11T05:38:31.006Z,96702.91
2023-03-11T05:39:38.097Z,96704.06
2023-03-11T05:40:43.807Z,96701.72
2023-03-11T05:41:53.027Z,96709.13
2023-03-11T05:43:00.034Z,96706.63
2023-03-11T05:44:06.199Z,96714.16
2023-03-11T05:45:11.504Z,96713.50
2023-03-11T05:46:15.578Z,96718.91
2023-03-11T05:47:22.988Z,96702.22
2023-03-11T05:48:27.456Z,96707.16
2023-03-11T05:49:31.230Z,96721.22
2023-03-11T05:50:34.944Z,96724.41
2023-03-11T05:51:38.497Z,96718.97
2023-03-11T05:52:51.480Z,96712.94
2023-03-11T05:53:55.555Z,96736.97
2023-03-11T05:54:59.686Z,96714.50
2023-03-11T05:56:04.229Z,96720.88
2023-03-11T05:57:08.078Z,96730.34
2023-03-11T05:58:12.827Z,96723.75
2023-03-11T05:59:18.024Z,96727.69
2023-03-11T06:00:22.693Z,96740.19
2023-03-11T06:01:30.371Z,96743.72
2023-03-11T06:02:34.192Z,96736.94
2023-03-11T06:03:39.941Z,96742.94
2023-03-11T06:04:48.262Z,96708.38
2023-03-11T06:05:53.235Z,96739.50
2023-03-11T06:06:57.102Z,96742.00
2023-03-11T06:08:01.041Z,96739.50
2023-03-11T06:09:05.028Z,96746.72
2023-03-11T06:10:11.410Z,96738.53
2023-03-11T06:11:15.766Z,96752.97
2023-03-11T06:12:23.656Z,96754.94
2023-03-11T06:13:27.262Z,96748.53
2023-03-11T06:14:32.833Z,96751.31
2023-03-11T06:15:39.966Z,96761.56
2023-03-11T06:16:43.757Z,96761.56
2023-03-11T06:17:47.490Z,96756.84
2023-03-11T06:18:52.356Z,96772.53
2023-03-11T06:20:02.882Z,96767.25
2023-03-11T06:21:09.778Z,96772.84
2023-03-11T06:22:13.662Z,96778.38
2023-03-11T06:23:17.362Z,96766.59
2023-03-11T06:24:21.396Z,96784.94
2023-03-11T06:25:25.758Z,96774.44
2023-03-11T06:26:30.789Z,96794.44
2023-03-11T06:27:38.370Z,96800.94
2023-03-11T06:28:47.249Z,96802.94
2023-03-11T06:29:55.045Z,96799.03
2023-03-11T06:31:12.208Z,96799.03
2023-03-11T06:32:17.041Z,96789.59
2023-03-11T06:33:20.789Z,96807.63
2023-03-11T06:34:25.237Z,96804.19
2023-03-11T06:35:29.110Z,96809.31
2023-03-11T06:36:34.165Z,96807.66
2023-03-11T06:37:38.207Z,96805.97
2023-03-11T06:38:48.155Z,96810.28
2023-03-11T06:39:55.685Z,96823.47
2023-03-11T06:41:11.098Z,96817.09
2023-03-11T06:42:15.769Z,96819.97
2023-03-11T06:43:21.610Z,96820.53
2023-03-11T06:44:26.864Z,96816.25
2023-03-11T06:45:38.172Z,96816.53
2023-03-11T06:46:43.183Z,96815.94
2023-03-11T06:47:53.650Z,96823.56
2023-03-11T06:48:58.212Z,96816.78
2023-03-11T06:50:07.552Z,96830.94
2023-03-11T06:51:11.900Z,96848.78
2023-03-11T06:52:18.675Z,96833.13
2023-03-11T06:53:23.398Z,96844.63
2023-03-11T06:54:27.115Z,96838.69
2023-03-11T06:55:32.027Z,96847.94
2023-03-11T06:56:39.326Z,96835.06
2023-03-11T06:57:44.868Z,96838.97
2023-03-11T06:58:52.121Z,96847.13
2023-03-11T06:59:57.742Z,96850.44
2023-03-11T07:01:12.005Z,96869.84
2023-03-11T07:02:16.018Z,96860.72
2023-03-11T07:03:20.948Z,96859.75
2023-03-11T07:04:25.041Z,96858.50
2023-03-11T07:05:28.894Z,96861.66
2023-03-11T07:06:34.577Z,96879.84
2023-03-11T07:07:38.679Z,96882.47
2023-03-11T07:08:42.788Z,96882.16
2023-03-11T07:09:50.008Z,96882.16
2023-03-11T07:11:06.621Z,96884.13
2023-03-11T07:12:11.158Z,96882.03
2023-03-11T07:13:15.562Z,96880.50
2023-03-11T07:14:23.153Z,96890.22
2023-03-11T07:15:27.645Z,96884.00
2023-03-11T07:16:31.733Z,96885.25
2023-03-11T07:17:36.038Z,96897.69
2023-03-11T07:18:40.262Z,96884.94
2023-03-11T07:19:44.114Z,96884.97
2023-03-11T07:20:49.671Z,96900.47
2023-03-11T07:21:53.478Z,96901.03
2023-03-11T07:22:57.039Z,96892.16
2023-03-11T07:24:03.153Z,96901.97
2023-03-11T07:25:09.574Z,96894.38
2023-03-11T07:26:18.687Z,96898.13
2023-03-11T07:27:23.238Z,96903.97
2023-03-11T07:28:29.446Z,96897.31
2023-03-11T07:29:35.795Z,96907.44
2023-03-11T07:30:40.528Z,96906.31
2023-03-11T07:31:46.338Z,96911.88
2023-03-11T07:32:52.492Z,96909.69
2023-03-11T07:34:02.113Z,96908.81
2023-03-11T07:35:06.573Z,96913.56
2023-03-11T07:36:21.028Z,96906.34
2023-03-11T07:37:25.080Z,96913.94
2023-03-11T07:38:30.824Z,96910.91
2023-03-11T07:39:39.774Z,96916.88
2023-03-11T07:40:47.617Z,96918.53
2023-03-11T07:41:52.292Z,96918.13
2023-03-11T07:43:05.064Z,96916.88
2023-03-11T07:44:15.867Z,96923.56
2023-03-11T07:45:20.159Z,96922.88
2023-03-11T07:46:26.438Z,96927.41
2023-03-11T07:47:30.987Z,96926.63
2023-03-11T07:48:38.296Z,96933.66
2023-03-11T07:49:42.416Z,96938.38
2023-03-11T07:50:46.352Z,96932.44
2023-03-11T07:51:52.116Z,96930.03
2023-03-11T07:53:01.333Z,96940.72
2023-03-11T07:54:14.410Z,96931.91
2023-03-11T07:55:18.619Z,96932.44
2023-03-11T07:56:30.393Z,96928.13
2023-03-11T07:57:38.618Z,96945.69
2023-03-11T07:58:45.805Z,96936.56
2023-03-11T07:59:50.380Z,96944.59
2023-03-11T08:00:57.059Z,96935.31
2023-03-11T08:02:06.348Z,96944.63
2023-03-11T08:03:10.844Z,96948.22
2023-03-11T08:04:17.289Z,96945.84
2023-03-11T08:05:21.607Z,96950.72
2023-03-11T08:06:31.270Z,96954.03
2023-03-11T08:07:38.452Z,96946.97
2023-03-11T08:08:49.071Z,96955.69
2023-03-11T08:09:53.079Z,96956.22
2023-03-11T08:10:57.778Z,96976.84
2023-03-11T08:12:09.519Z,96954.41
2023-03-11T08:13:16.136Z,96963.66
2023-03-11T08:14:19.956Z,96964.25
2023-03-11T08:15:25.003Z,96960.34
2023-03-11T08:16:29.715Z,96948.84
2023-03-11T08:17:33.458Z,96958.69
2023-03-11T08:18:38.136Z,96962.28
2023-03-11T08:19:43.256Z,96967.81
2023-03-11T08:20:47.306Z,96958.41
2023-03-11T08:21:54.749Z,96968.13
2023-03-11T08:23:00.886Z,96980.97
2023-03-11T08:24:07.026Z,96973.50
2023-03-11T08:25:11.327Z,96975.59
2023-03-11T08:26:21.566Z,96960.47
2023-03-11T08:27:29.775Z,96967.88
2023-03-11T08:28:35.128Z,96972.47
2023-03-11T08:29:44.135Z,96962.44
2023-03-11T08:30:48.496Z,96977.25
2023-03-11T08:31:52.542Z,96978.72
2023-03-11T08:32:56.996Z,96979.09
2023-03-11T08:34:05.334Z,96973.84
2023-03-11T08:35:11.629Z,96973.66
2023-03-11T08:36:15.903Z,96972.00
2023-03-11T08:37:19.810Z,96968.63
2023-03-11T08:38:23.663Z,96985.00
2023-03-11T08:39:27.608Z,96992.78
2023-03-11T08:40:31.544Z,96991.09
2023-03-11T08:41:40.182Z,96978.91
2023-03-11T08:42:44.013Z,96990.28
2023-03-11T08:43:51.483Z,96996.09
2023-03-11T08:44:55.480Z,96994.44
2023-03-11T08:46:07.750Z,97003.44
2023-03-11T08:47:14.808Z,97012.16
2023-03-11T08:48:18.833Z,97004.41
2023-03-11T08:49:22.960Z,96990.78
2023-03-11T08:50:27.129Z,97007.84
2023-03-11T08:51:34.861Z,96989.31
2023-03-11T08:52:42.051Z,97003.28
2023-03-11T08:53:55.540Z,97000.09
2023-03-11T08:54:59.837Z,97016.00
2023-03-11T08:56:07.977Z,97008.63
2023-03-11T08:57:12.051Z,97002.41
2023-03-11T08:58:20.895Z,97009.19
2023-03-11T08:59:25.400Z,97024.75
2023-03-11T09:00:30.541Z,97009.38
2023-03-11T09:01:34.311Z,97004.44
2023-03-11T09:02:38.227Z,97012.34
2023-03-11T09:03:42.518Z,97014.19
2023-03-11T09:04:46.691Z,97008.50
2023-03-11T09:06:09.726Z,97019.88
2023-03-11T09:07:15.001Z,97011.38
2023-03-11T09:08:24.228Z,97027.66
2023-03-11T09:09:28.110Z,97024.09
2023-03-11T09:10:32.205Z,97011.13
2023-03-11T09:11:37.563Z,97021.75
2023-03-11T09:12:43.019Z,97025.50
2023-03-11T09:13:49.017Z,97031.59
2023-03-11T09:14:54.835Z,97034.22
2023-03-11T09:16:08.000Z,97037.69
2023-03-11T09:17:14.561Z,97017.97
2023-03-11T09:18:19.438Z,97036.03
2023-03-11T09:19:22.972Z,97030.75
2023-03-11T09:20:27.101Z,97039.13
2023-03-11T09:21:32.162Z,97037.69
2023-03-11T09:22:36.167Z,97049.88
2023-03-11T09:23:43.638Z,97032.88
2023-03-11T09:24:48.496Z,97052.50
2023-03-11T09:25:52.449Z,97045.84
2023-03-11T09:27:00.973Z,97047.66
2023-03-11T09:28:05.465Z,97043.91
2023-03-11T09:29:10.496Z,97044.88
2023-03-11T09:30:14.942Z,97048.63
2023-03-11T09:31:20.639Z,97057.59
2023-03-11T09:32:25.112Z,97059.84
2023-03-11T09:33:29.716Z,97055.69
2023-03-11T09:34:34.328Z,97059.25
2023-03-11T09:35:43.678Z,97061.78
2023-03-11T09:36:47.748Z,97071.19
2023-03-11T09:37:51.893Z,97068.56
2023-03-11T09:38:55.600Z,97071.06
2023-03-11T09:39:59.493Z,97067.59
2023-03-11T09:41:14.004Z,97073.31
2023-03-11T09:42:49.814Z,97065.63
2023-03-11T09:44:11.737Z,97070.94
2023-03-11T09:45:27.859Z,97054.31
2023-03-11T09:47:12.510Z,97066.66
2023-03-11T09:48:37.608Z,97075.00
2023-03-11T09:50:12.012Z,97075.22
2023-03-11T09:51:35.831Z,97065.00
2023-03-11T09:53:36.403Z,97072.06
2023-03-11T09:54:49.281Z,97063.50
2023-03-11T09:55:56.778Z,97084.47
2023-03-11T09:57:04.816Z,97083.72
2023-03-11T09:58:28.797Z,97078.88
2023-03-11T09:59:33.757Z,97097.31
2023-03-11T10:00:39.435Z,97073.19
2023-03-11T10:01:49.115Z,97074.84
2023-03-11T10:02:53.759Z,97091.34
2023-03-11T10:04:24.421Z,97086.47
2023-03-11T10:05:33.448Z,97087.19
2023-03-11T10:06:40.025Z,97092.88
2023-03-11T10:07:59.675Z,97090.81
2023-03-11T10:09:25.150Z,97096.22
2023-03-11T10:10:39.957Z,97095.13
2023-03-11T10:12:18.861Z,97106.94
2023-03-11T10:13:40.096Z,97094.16
2023-03-11T10:15:09.617Z,97102.72
2023-03-11T10:16:46.717Z,97118.50
2023-03-11T10:18:34.138Z,97119.91
2023-03-11T10:20:26.331Z,97117.47
2023-03-11T10:22:19.545Z,97136.97
2023-03-11T10:23:58.816Z,97134.03
2023-03-11T10:25:22.966Z,97129.25
2023-03-11T10:27:08.759Z,97128.78
2023-03-11T10:28:20.270Z,97130.25
2023-03-11T10:29:45.353Z,97137.97
2023-03-11T10:31:02.200Z,97137.81
2023-03-11T10:32:25.372Z,97134.28
2023-03-11T10:33:56.996Z,97148.16
2023-03-11T10:35:28.837Z,97145.19
2023-03-11T10:36:54.281Z,97128.16
2023-03-11T10:38:49.480Z,97152.03
2023-03-11T10:39:53.986Z,97155.44
2023-03-11T10:41:07.032Z,97160.69
2023-03-11T10:42:34.078Z,97158.66
2023-03-11T10:44:11.631Z,97157.78
2023-03-11T10:45:15.766Z,97158.41
2023-03-11T10:46:27.765Z,97167.38
2023-03-11T10:47:31.568Z,97166.63
2023-03-11T10:48:41.694Z,97160.56
2023-03-11T10:49:46.456Z,97162.47
2023-03-11T10:51:24.285Z,97168.00
2023-03-11T10:52:30.044Z,97175.97
2023-03-11T10:53:45.224Z,97195.59
2023-03-11T10:55:04.485Z,97176.25
2023-03-11T10:56:36.792Z,97166.81
2023-03-11T10:57:41.850Z,97180.53
2023-03-11T10:58:50.471Z,97176.63
2023-03-11T11:00:12.805Z,97176.97
2023-03-11T11:01:19.163Z,97185.69
2023-03-11T11:02:49.922Z,97191.31
2023-03-11T11:04:02.929Z,97188.06
2023-03-11T11:05:32.917Z,97181.63
2023-03-11T11:06:38.233Z,97186.66
2023-03-11T11:07:42.846Z,97191.78
2023-03-11T11:08:47.210Z,97198.84
2023-03-11T11:10:15.709Z,97197.50
2023-03-11T11:11:25.756Z,97207.31
2023-03-11T11:12:33.973Z,97196.69
2023-03-11T11:13:38.059Z,97200.41
2023-03-11T11:14:55.493Z,97209.72
2023-03-11T11:16:22.131Z,97209.34
2023-03-11T11:17:34.648Z,97206.97
2023-03-11T11:19:10.954Z,97213.91
2023-03-11T11:20:20.321Z,97205.78
2023-03-11T11:21:47.229Z,97208.28
2023-03-11T11:23:01.606Z,97216.88
2023-03-11T11:25:07.820Z,97209.59
2023-03-11T11:26:28.243Z,97230.03
2023-03-11T11:27:32.993Z,97226.91
2023-03-11T11:28:37.686Z,97225.00
2023-03-11T11:29:42.740Z,97229.19
2023-03-11T11:31:02.627Z,97231.09
2023-03-11T11:32:27.579Z,97237.75
2023-03-11T11:33:55.893Z,97238.50
2023-03-11T11:35:10.972Z,97237.53
2023-03-11T11:36:18.582Z,97246.47
2023-03-11T11:37:25.162Z,97240.13
2023-03-11T11:38:39.339Z,97243.22
2023-03-11T11:40:00.442Z,97243.69
2023-03-11T11:41:17.087Z,97257.06
2023-03-11T11:42:32.710Z,97251.06
2023-03-11T11:44:19.153Z,97252.38
2023-03-11T11:46:09.901Z,97271.50
2023-03-11T11:47:42.025Z,97271.28
2023-03-11T11:49:33.490Z,97269.25
2023-03-11T11:52:46.413Z,97284.41
2023-03-11T11:55:17.999Z,97279.34
2023-03-11T11:56:47.903Z,97290.06
2023-03-11T11:57:57.102Z,97288.38
2023-03-11T12:00:06.560Z,97289.03
2023-03-11T12:04:27.381Z,97306.28
2023-03-11T12:06:16.332Z,97298.88
2023-03-11T12:08:02.714Z,97308.41
2023-03-11T12:09:47.936Z,97311.91
2023-03-11T12:11:06.543Z,97311.31
2023-03-11T12:13:07.268Z,97325.00
2023-03-11T12:14:43.759Z,97320.34
2023-03-11T12:16:20.303Z,97329.06
2023-03-11T12:17:31.280Z,97340.06
2023-03-11T12:18:51.292Z,97340.69
2023-03-11T12:20:46.874Z,97337.72
2023-03-11T12:22:31.812Z,97351.19
2023-03-11T12:24:47.201Z,97349.03
2023-03-11T12:26:14.854Z,97362.56
2023-03-11T12:27:54.937Z,97357.66
2023-03-11T12:29:39.349Z,97370.44
2023-03-11T12:30:55.761Z,97376.00
2023-03-11T12:32:02.552Z,97383.28
2023-03-11T12:33:40.608Z,97393.38
2023-03-11T12:34:44.707Z,97398.41
2023-03-11T12:35:59.683Z,97409.13
2023-03-11T12:37:17.848Z,97417.53
2023-03-11T12:38:49.123Z,97425.47
2023-03-11T12:39:53.023Z,97433.56
2023-03-11T12:41:26.264Z,97447.09
2023-03-11T12:42:40.585Z,97450.06
2023-03-11T12:43:47.682Z,97442.59
2023-03-11T12:44:54.161Z,97442.59
2023-03-11T12:46:01.711Z,97454.25
2023-03-11T12:47:08.443Z,97448.69
2023-03-11T12:48:50.451Z,97468.06
2023-03-11T12:50:16.427Z,97446.16
2023-03-11T12:51:37.605Z,97472.47
2023-03-11T12:52:55.297Z,97476.06
2023-03-11T12:53:59.363Z,97472.59
2023-03-11T12:55:02.951Z,97491.34
2023-03-11T12:56:36.827Z,97494.19
2023-03-11T12:58:02.480Z,97495.97
2023-03-11T13:00:01.858Z,97493.25
2023-03-11T13:01:52.015Z,97500.06
2023-03-11T13:03:23.129Z,97497.00
2023-03-11T13:04:59.955Z,97513.69
2023-03-11T13:06:39.122Z,97527.56
2023-03-11T13:07:49.012Z,97523.38
2023-03-11T13:09:00.832Z,97527.66
2023-03-11T13:10:39.240Z,97525.78
2023-03-11T13:11:49.295Z,97525.47
2023-03-11T13:12:53.291Z,97529.16
2023-03-11T13:14:16.374Z,97540.25
2023-03-11T13:15:20.414Z,97551.41
2023-03-11T13:16:24.183Z,97546.34
2023-03-11T13:17:32.576Z,97552.75
2023-03-11T13:18:36.962Z,97558.09
2023-03-11T13:19:51.428Z,97557.25
2023-03-11T13:21:03.051Z,97556.00
2023-03-11T13:22:52.908Z,97574.66
2023-03-11T13:24:30.351Z,97570.88
2023-03-11T13:25:47.504Z,97578.22
2023-03-11T13:27:00.839Z,97582.44
2023-03-11T13:28:49.914Z,97592.28
2023-03-11T13:30:32.552Z,97602.22
2023-03-11T13:32:12.553Z,97607.97
2023-03-11T13:34:16.806Z,97599.47
2023-03-11T13:38:09.535Z,97615.94
2023-03-11T13:39:52.952Z,97617.78
2023-03-11T13:40:57.427Z,97615.16
2023-03-11T13:42:05.740Z,97625.03
2023-03-11T13:43:20.279Z,97624.31
2023-03-11T13:44:39.853Z,97631.78
2023-03-11T13:46:06.365Z,97635.13
2023-03-11T13:47:17.720Z,97636.69
2023-03-11T13:48:37.743Z,97639.56
2023-03-11T13:50:23.372Z,97630.09
2023-03-11T13:51:45.070Z,97643.22
2023-03-11T13:52:55.388Z,97651.09
2023-03-11T13:54:27.236Z,97649.22
2023-03-11T13:55:46.554Z,97661.84
2023-03-11T13:57:01.800Z,97657.72
2023-03-11T13:58:22.882Z,97658.13
2023-03-11T13:59:38.910Z,97663.09
2023-03-11T14:00:53.187Z,97658.13
2023-03-11T14:02:13.528Z,97667.44
2023-03-11T14:03:24.169Z,97669.13
2023-03-11T14:04:32.994Z,97676.72
2023-03-11T14:05:52.433Z,97678.78
2023-03-11T14:07:00.312Z,97674.59
2023-03-11T14:08:24.631Z,97698.69
2023-03-11T14:09:31.900Z,97694.00
2023-03-11T14:10:41.904Z,97697.00
2023-03-11T14:11:50.804Z,97696.47
2023-03-11T14:13:18.908Z,97695.50
2023-03-11T14:14:48.528Z,97699.25
2023-03-11T14:16:00.281Z,97706.59